Aeroporto :
LOGIN :

Iscrizione | Disclaimer

   EN    FR    IT 

 










Sommario :    VFR   VFR Marginale   IFR   IFR Intensivo   IFR Molto Intensivo
Visibilità : 
Base nubi : 
>= 8 km
>= 3000ft
5 / 8 km
1000 / 3000 ft
1500m / 5 km
500 / 1000 ft
800 / 1500m
200 / 500 ft
< 800m
< 200 ft
Simboli :   Temporali  Nebbia  Neve Forte  Precipitazioni Forti  Vento > 20 kt
SIGMETs :   Varie  Temporali  Ghiacco  Turbolenza  Onda orograficha  Ceneri Vulcaniche






- Altitudine del aeroporto : 158 ft
- Codice IATA : QAR


EHDL - Deelen Airbase

ULTIMO METAR :
  • 220155Z AUTO 26006KT 230V330 3400 BR FEW006 BKN007 OVC008 05/04 Q1032 REDZ YLO

METARs OBSOLETI :
  • 220125Z AUTO 26008KT 220V360 8000 BR FEW007 BKN013 OVC016 05/04 Q1032 GRN
  • 220055Z AUTO 27005KT 220V350 5000 BR FEW004 SCT005 BKN007 05/04 Q1032 YLO
  • 220025Z AUTO 27007KT 220V360 9999 SCT007 BKN008 OVC010 05/04 Q1032 GRN
  • 212355Z AUTO 26007KT 220V340 6000 BR FEW007 OVC011 05/04 Q1032 GRN
  • 212325Z AUTO 27007KT 210V300 6000 BR SCT008 BKN009 OVC011 05/04 Q1032 GRN

Previsioni scadute.



MetMap, La meteo Aeronautica in un colpo d'occhio ! - Copyright ORBIFLY Dicembre 2007 - Disclaimer

ORBIFLY MET'MAP TEAM :

Programmazione e sviluppo : Alexandra Zaïnal
Concezione : Baudouin d'Aumeries
Aiuto per la programmazione : Marc-Olivier Méhu
Supporto tecnico e logistico : Manuel Goepfert
Aiuto per la traduzione : Arnaldo La Scala

Contatto : metmap@orbifly.com




FONTI E CREDITI :

   NOAA